createdAt,value
2018-04-10T00:00:05.486Z,0.00
2018-04-10T00:01:05.470Z,0.00
2018-04-10T00:02:05.458Z,0.00
2018-04-10T00:03:05.442Z,0.00
2018-04-10T00:04:05.428Z,0.00
2018-04-10T00:05:05.413Z,0.00
2018-04-10T00:06:05.399Z,0.00
2018-04-10T00:07:05.397Z,0.00
2018-04-10T00:08:05.370Z,0.00
2018-04-10T00:09:05.354Z,0.00
2018-04-10T00:10:05.341Z,0.00
2018-04-10T00:11:05.326Z,0.00
2018-04-10T00:12:05.313Z,0.00
2018-04-10T00:13:05.297Z,0.00
2018-04-10T00:14:05.284Z,0.00
2018-04-10T00:15:05.268Z,0.00
2018-04-10T00:16:05.262Z,0.00
2018-04-10T00:17:05.242Z,0.00
2018-04-10T00:18:05.225Z,0.00
2018-04-10T00:19:05.209Z,0.00
2018-04-10T00:20:05.193Z,0.00
2018-04-10T00:21:05.177Z,0.00
2018-04-10T00:22:05.166Z,0.00
2018-04-10T00:23:05.150Z,0.00
2018-04-10T00:24:05.135Z,0.00
2018-04-10T00:25:05.120Z,0.00
2018-04-10T00:26:05.110Z,0.00
2018-04-10T00:27:05.091Z,0.00
2018-04-10T00:28:05.081Z,0.00
2018-04-10T00:29:05.069Z,0.00
2018-04-10T00:30:05.049Z,0.00
2018-04-10T00:31:05.035Z,0.00
2018-04-10T00:32:05.018Z,0.00
2018-04-10T00:33:05.005Z,0.00
2018-04-10T00:34:04.989Z,0.00
2018-04-10T00:35:04.975Z,0.00
2018-04-10T00:36:04.965Z,0.00
2018-04-10T00:37:04.951Z,0.00
2018-04-10T00:38:04.931Z,0.00
2018-04-10T00:39:04.922Z,0.00
2018-04-10T00:40:04.901Z,0.00
2018-04-10T00:41:04.888Z,0.00
2018-04-10T00:42:04.872Z,0.00
2018-04-10T00:43:04.858Z,0.00
2018-04-10T00:44:04.845Z,0.00
2018-04-10T00:45:04.826Z,0.00
2018-04-10T00:46:04.813Z,0.00
2018-04-10T00:47:04.799Z,0.00
2018-04-10T00:48:04.785Z,0.00
2018-04-10T00:49:04.772Z,0.00
2018-04-10T00:50:04.757Z,0.00
2018-04-10T00:51:04.740Z,0.00
2018-04-10T00:52:04.725Z,0.00
2018-04-10T00:53:04.711Z,0.00
2018-04-10T00:54:04.695Z,0.00
2018-04-10T00:55:04.680Z,0.00
2018-04-10T00:56:04.667Z,0.00
2018-04-10T00:57:04.652Z,0.00
2018-04-10T00:58:04.636Z,0.00
2018-04-10T00:59:04.621Z,0.00
2018-04-10T01:00:04.605Z,0.00
2018-04-10T01:01:04.591Z,0.00
2018-04-10T01:02:04.577Z,0.00
2018-04-10T01:03:04.562Z,0.00
2018-04-10T01:04:04.546Z,0.00
2018-04-10T01:05:04.532Z,0.00
2018-04-10T01:06:04.517Z,0.00
2018-04-10T01:07:04.503Z,0.00
2018-04-10T01:08:04.490Z,0.00
2018-04-10T01:09:04.472Z,0.00
2018-04-10T01:10:04.457Z,0.00
2018-04-10T01:11:04.444Z,0.00
2018-04-10T01:12:04.426Z,0.00
2018-04-10T01:13:04.412Z,0.00
2018-04-10T01:14:04.398Z,0.00
2018-04-10T01:15:04.383Z,0.00
2018-04-10T01:16:04.368Z,0.00
2018-04-10T01:17:04.353Z,0.00
2018-04-10T01:18:04.344Z,0.00
2018-04-10T01:19:04.325Z,0.00
2018-04-10T01:20:04.308Z,0.00
2018-04-10T01:21:04.294Z,0.00
2018-04-10T01:22:04.278Z,0.00
2018-04-10T01:23:04.263Z,0.00
2018-04-10T01:24:04.251Z,0.00
2018-04-10T01:25:04.234Z,0.00
2018-04-10T01:26:04.219Z,0.00
2018-04-10T01:27:04.205Z,0.00
2018-04-10T01:28:04.188Z,0.00
2018-04-10T01:29:04.172Z,0.00
2018-04-10T01:30:04.157Z,0.00
2018-04-10T01:31:04.143Z,0.00
2018-04-10T01:32:04.130Z,0.00
2018-04-10T01:33:04.112Z,0.00
2018-04-10T01:34:04.097Z,0.00
2018-04-10T01:35:04.083Z,0.00
2018-04-10T01:36:04.067Z,0.00
2018-04-10T01:37:04.053Z,0.00
2018-04-10T01:38:04.038Z,0.00
2018-04-10T01:39:04.025Z,0.00
2018-04-10T01:40:04.057Z,0.00
2018-04-10T01:41:03.996Z,0.00
2018-04-10T01:42:03.978Z,0.00
2018-04-10T01:43:03.962Z,0.00
2018-04-10T01:44:03.948Z,0.00
2018-04-10T01:45:03.936Z,0.00
2018-04-10T01:46:03.917Z,0.00
2018-04-10T01:47:03.903Z,0.00
2018-04-10T01:48:03.889Z,0.00
2018-04-10T01:49:03.876Z,0.00
2018-04-10T01:50:03.908Z,0.00
2018-04-10T01:51:03.843Z,0.00
2018-04-10T01:52:03.828Z,0.00
2018-04-10T01:53:03.813Z,0.00
2018-04-10T01:54:03.800Z,0.00
2018-04-10T01:55:03.784Z,0.00
2018-04-10T01:56:03.766Z,0.00
2018-04-10T01:57:03.753Z,0.00
2018-04-10T01:58:03.736Z,0.00
2018-04-10T01:59:03.723Z,0.00
2018-04-10T02:00:03.706Z,0.00
2018-04-10T02:01:03.692Z,0.00
2018-04-10T02:02:03.679Z,0.00
2018-04-10T02:03:03.661Z,0.00
2018-04-10T02:04:03.647Z,0.00
2018-04-10T02:05:03.635Z,0.00
2018-04-10T02:06:03.617Z,0.00
2018-04-10T02:07:03.602Z,0.00
2018-04-10T02:08:03.588Z,0.00
2018-04-10T02:09:03.571Z,0.00
2018-04-10T02:10:03.555Z,0.00
2018-04-10T02:14:30.951Z,0.00
2018-04-10T02:15:30.938Z,0.00
2018-04-10T02:16:30.922Z,0.00
2018-04-10T02:17:30.902Z,0.00
2018-04-10T02:18:30.895Z,0.00
2018-04-10T02:19:33.976Z,0.00
2018-04-10T02:20:30.858Z,0.00
2018-04-10T02:21:30.844Z,0.00
2018-04-10T02:22:30.831Z,0.00
2018-04-10T02:23:30.811Z,0.00
2018-04-10T02:24:30.799Z,0.00
2018-04-10T02:25:30.781Z,0.00
2018-04-10T02:26:30.765Z,0.00
2018-04-10T02:27:30.754Z,0.00
2018-04-10T02:28:30.738Z,0.00
2018-04-10T02:29:30.721Z,0.00
2018-04-10T02:30:30.706Z,0.00
2018-04-10T02:31:30.690Z,0.00
2018-04-10T02:32:30.677Z,0.00
2018-04-10T02:33:30.659Z,0.00
2018-04-10T02:34:30.646Z,0.00
2018-04-10T02:35:30.629Z,0.00
2018-04-10T02:36:30.618Z,0.00
2018-04-10T02:37:30.602Z,0.00
2018-04-10T02:38:30.582Z,0.00
2018-04-10T02:39:30.567Z,0.00
2018-04-10T02:40:30.553Z,0.00
2018-04-10T02:41:30.537Z,0.00
2018-04-10T02:42:30.522Z,0.00
2018-04-10T02:43:30.504Z,0.00
2018-04-10T02:44:30.494Z,0.00
2018-04-10T02:45:30.475Z,0.00
2018-04-10T02:46:30.462Z,0.00
2018-04-10T02:47:30.445Z,0.00
2018-04-10T02:48:30.431Z,0.00
2018-04-10T02:49:30.413Z,0.00
2018-04-10T02:50:30.402Z,0.00
2018-04-10T02:51:30.382Z,0.00
2018-04-10T02:52:30.368Z,0.00
2018-04-10T02:53:30.352Z,0.00
2018-04-10T02:54:30.339Z,0.00
2018-04-10T02:55:30.322Z,0.00
2018-04-10T02:56:30.306Z,0.00
2018-04-10T02:57:30.292Z,0.00
2018-04-10T02:58:30.276Z,0.00
2018-04-10T02:59:30.261Z,0.00
2018-04-10T03:00:30.244Z,0.00
2018-04-10T03:01:30.231Z,0.00
2018-04-10T03:02:30.214Z,0.00
2018-04-10T03:03:30.201Z,0.00
2018-04-10T03:04:30.184Z,0.00
2018-04-10T03:05:30.166Z,0.00
2018-04-10T03:06:30.153Z,0.00
2018-04-10T03:07:30.138Z,0.00
2018-04-10T03:08:30.124Z,0.00
2018-04-10T03:09:30.110Z,0.00
2018-04-10T03:10:30.091Z,0.00
2018-04-10T03:11:30.079Z,0.00
2018-04-10T03:12:30.065Z,0.00
2018-04-10T03:13:30.046Z,0.00
2018-04-10T03:14:30.027Z,0.00
2018-04-10T03:15:30.016Z,0.00
2018-04-10T03:16:29.998Z,0.00
2018-04-10T03:17:29.982Z,0.00
2018-04-10T03:18:29.966Z,0.00
2018-04-10T03:19:29.951Z,0.00
2018-04-10T03:20:29.935Z,0.00
2018-04-10T03:21:29.919Z,0.00
2018-04-10T03:22:29.904Z,0.00
2018-04-10T03:23:29.887Z,0.00
2018-04-10T03:24:29.875Z,0.00
2018-04-10T03:25:29.859Z,0.00
2018-04-10T03:26:29.842Z,0.00
2018-04-10T03:27:29.827Z,0.00
2018-04-10T03:28:29.812Z,0.00
2018-04-10T03:29:29.795Z,0.00
2018-04-10T03:30:29.782Z,0.00
2018-04-10T03:31:29.766Z,0.00
2018-04-10T03:32:29.753Z,0.00
2018-04-10T03:33:29.734Z,0.00
2018-04-10T03:34:29.717Z,0.00
2018-04-10T03:35:29.701Z,0.00
2018-04-10T03:36:29.686Z,0.00
2018-04-10T03:37:29.672Z,0.00
2018-04-10T03:38:29.657Z,0.00
2018-04-10T03:39:29.641Z,0.00
2018-04-10T03:40:29.626Z,0.00
2018-04-10T03:41:29.607Z,0.00
2018-04-10T03:42:29.593Z,0.00
2018-04-10T03:43:29.580Z,0.00
2018-04-10T03:44:29.561Z,0.00
2018-04-10T03:45:29.548Z,0.00
2018-04-10T03:46:29.529Z,0.00
2018-04-10T03:47:29.514Z,0.00
2018-04-10T03:48:29.497Z,0.00
2018-04-10T03:49:29.481Z,4.00
2018-04-10T03:50:29.468Z,4.00
2018-04-10T03:51:29.450Z,0.00
2018-04-10T03:52:29.436Z,0.00
2018-04-10T03:53:29.420Z,4.00
2018-04-10T03:54:29.403Z,4.00
2018-04-10T03:55:29.389Z,4.00
2018-04-10T03:56:29.375Z,8.00
2018-04-10T03:57:29.356Z,4.00
2018-04-10T04:00:13.044Z,12.00
2018-04-10T04:01:13.028Z,12.00
2018-04-10T04:02:13.012Z,16.00
2018-04-10T04:03:12.996Z,16.00
2018-04-10T04:04:12.982Z,20.00
2018-04-10T04:05:12.965Z,24.00
2018-04-10T04:06:12.948Z,24.00
2018-04-10T04:07:12.932Z,32.00
2018-04-10T04:08:12.918Z,36.00
2018-04-10T04:09:12.901Z,40.00
2018-04-10T04:10:12.887Z,44.00
2018-04-10T04:11:12.870Z,56.00
2018-04-10T04:12:12.854Z,60.00
2018-04-10T04:13:12.838Z,68.00
2018-04-10T04:14:12.822Z,76.00
2018-04-10T04:15:12.806Z,88.00
2018-04-10T04:16:12.789Z,96.00
2018-04-10T04:17:12.773Z,104.00
2018-04-10T04:18:12.760Z,116.00
2018-04-10T04:19:12.741Z,128.00
2018-04-10T04:20:12.731Z,144.00
2018-04-10T04:21:12.712Z,156.00
2018-04-10T04:22:12.699Z,168.00
2018-04-10T04:23:12.679Z,188.00
2018-04-10T04:24:12.664Z,204.00
2018-04-10T04:25:12.653Z,220.00
2018-04-10T04:26:12.633Z,236.00
2018-04-10T04:27:12.616Z,256.00
2018-04-10T04:28:12.601Z,276.00
2018-04-10T04:29:12.585Z,296.00
2018-04-10T04:30:12.569Z,316.00
2018-04-10T04:31:12.553Z,340.00
2018-04-10T04:32:12.543Z,364.00
2018-04-10T04:33:12.523Z,384.00
2018-04-10T04:34:12.505Z,412.00
2018-04-10T04:35:12.489Z,440.00
2018-04-10T04:36:12.475Z,464.00
2018-04-10T04:37:12.459Z,488.00
2018-04-10T04:38:12.449Z,520.00
2018-04-10T04:39:12.427Z,544.00
2018-04-10T04:40:12.417Z,580.00
2018-04-10T04:41:12.394Z,604.00
2018-04-10T04:42:12.378Z,636.00
2018-04-10T04:43:12.364Z,668.00
2018-04-10T04:44:12.348Z,700.00
2018-04-10T04:45:12.332Z,732.00
2018-04-10T04:46:12.317Z,764.00
2018-04-10T04:47:12.301Z,796.00
2018-04-10T04:48:12.293Z,832.00
2018-04-10T04:49:12.269Z,864.00
2018-04-10T04:50:12.253Z,900.00
2018-04-10T04:51:12.245Z,932.00
2018-04-10T04:52:12.226Z,968.00
2018-04-10T04:53:12.205Z,1004.00
2018-04-10T04:54:12.199Z,1040.00
2018-04-10T04:55:12.173Z,1072.00
2018-04-10T04:56:12.159Z,1108.00
2018-04-10T04:57:12.143Z,1144.00
2018-04-10T04:58:12.132Z,1176.00
2018-04-10T04:59:12.112Z,1212.00
2018-04-10T05:00:12.098Z,1248.00
2018-04-10T05:01:12.086Z,1284.00
2018-04-10T05:02:12.068Z,1320.00
2018-04-10T05:03:12.049Z,1356.00
2018-04-10T05:04:12.037Z,1392.00
2018-04-10T05:05:12.017Z,1432.00
2018-04-10T05:06:12.003Z,1464.00
2018-04-10T05:07:11.985Z,1500.00
2018-04-10T05:08:11.970Z,1540.00
2018-04-10T05:09:11.956Z,1580.00
2018-04-10T05:10:11.940Z,1616.00
2018-04-10T05:11:11.923Z,1652.00
2018-04-10T05:12:11.908Z,1692.00
2018-04-10T05:13:11.892Z,1728.00
2018-04-10T05:14:11.878Z,1764.00
2018-04-10T05:15:11.861Z,1800.00
2018-04-10T05:16:11.847Z,1840.00
2018-04-10T05:17:11.833Z,1876.00
2018-04-10T05:18:11.815Z,1912.00
2018-04-10T05:19:11.796Z,1952.00
2018-04-10T05:20:11.783Z,1984.00
2018-04-10T05:21:11.771Z,2024.00
2018-04-10T05:22:11.753Z,2060.00
2018-04-10T05:23:11.739Z,2092.00
2018-04-10T05:24:11.721Z,2128.00
2018-04-10T05:25:11.706Z,2168.00
2018-04-10T05:26:11.690Z,2208.00
2018-04-10T05:27:11.675Z,2244.00
2018-04-10T05:28:11.660Z,2280.00
2018-04-10T05:29:11.645Z,2316.00
2018-04-10T05:30:11.632Z,2352.00
2018-04-10T05:31:11.611Z,2384.00
2018-04-10T05:32:11.598Z,2420.00
2018-04-10T05:33:11.582Z,2452.00
2018-04-10T05:34:11.566Z,2488.00
2018-04-10T05:35:11.552Z,2528.00
2018-04-10T05:36:11.537Z,2568.00
2018-04-10T05:37:11.522Z,2608.00
2018-04-10T05:38:11.511Z,2648.00
2018-04-10T05:39:11.492Z,2684.00
2018-04-10T05:40:11.475Z,2716.00
2018-04-10T05:41:11.463Z,2752.00
2018-04-10T05:42:11.445Z,2792.00
2018-04-10T05:43:11.431Z,2824.00
2018-04-10T05:44:11.413Z,2860.00
2018-04-10T05:45:11.400Z,2900.00
2018-04-10T05:46:11.389Z,2944.00
2018-04-10T05:47:11.368Z,2980.00
2018-04-10T05:48:11.354Z,3020.00
2018-04-10T05:49:11.340Z,3052.00
2018-04-10T05:50:11.323Z,3088.00
2018-04-10T05:51:11.309Z,3124.00
2018-04-10T05:52:11.302Z,3160.00
2018-04-10T05:53:11.319Z,3204.00
2018-04-10T05:54:11.262Z,3232.00
2018-04-10T05:55:11.248Z,3272.00
2018-04-10T05:56:11.233Z,3312.00
2018-04-10T05:57:11.217Z,3348.00
2018-04-10T05:58:11.204Z,3392.00
2018-04-10T05:59:11.191Z,3428.00
2018-04-10T06:00:11.172Z,3464.00
2018-04-10T06:01:11.158Z,3496.00
2018-04-10T06:02:11.143Z,3532.00
2018-04-10T06:03:11.127Z,3576.00
2018-04-10T06:04:11.112Z,3616.00
2018-04-10T06:05:11.100Z,3652.00
2018-04-10T06:06:11.084Z,3696.00
2018-04-10T06:07:11.073Z,3732.00
2018-04-10T06:08:11.056Z,3764.00
2018-04-10T06:09:11.041Z,3812.00
2018-04-10T06:10:11.024Z,3852.00
2018-04-10T06:11:11.008Z,3888.00
2018-04-10T06:12:10.995Z,3932.00
2018-04-10T06:13:10.981Z,3976.00
2018-04-10T06:14:10.967Z,4020.00
2018-04-10T06:15:10.953Z,4060.00
2018-04-10T06:16:10.936Z,4104.00
2018-04-10T06:17:10.924Z,4132.00
2018-04-10T06:18:10.909Z,4184.00
2018-04-10T06:19:10.891Z,4232.00
2018-04-10T06:20:10.879Z,4272.00
2018-04-10T06:21:10.866Z,4320.00
2018-04-10T06:22:10.877Z,4372.00
2018-04-10T06:23:10.836Z,4408.00
2018-04-10T06:24:10.830Z,4456.00
2018-04-10T06:25:10.810Z,4504.00
2018-04-10T06:26:10.794Z,4564.00
2018-04-10T06:27:10.779Z,4620.00
2018-04-10T06:28:10.764Z,4684.00
2018-04-10T06:29:10.753Z,4732.00
2018-04-10T06:30:10.737Z,4792.00
2018-04-10T06:31:10.724Z,4848.00
2018-04-10T06:32:10.709Z,4908.00
2018-04-10T06:33:10.706Z,4980.00
2018-04-10T06:34:10.683Z,5036.00
2018-04-10T06:35:10.667Z,5084.00
2018-04-10T06:36:10.655Z,5136.00
2018-04-10T06:37:10.642Z,5188.00
2018-04-10T06:38:10.626Z,5252.00
2018-04-10T06:39:10.612Z,5312.00
2018-04-10T06:40:10.601Z,5380.00
2018-04-10T06:41:10.589Z,5448.00
2018-04-10T06:42:10.575Z,5516.00
2018-04-10T06:43:10.559Z,5608.00
2018-04-10T06:44:10.543Z,5672.00
2018-04-10T06:45:10.532Z,5760.00
2018-04-10T06:46:10.518Z,5836.00
2018-04-10T06:47:10.502Z,5928.00
2018-04-10T06:48:10.489Z,6012.00
2018-04-10T06:49:10.491Z,6096.00
2018-04-10T06:50:10.463Z,6184.00
2018-04-10T06:51:10.456Z,6284.00
2018-04-10T06:52:10.438Z,6380.00
2018-04-10T06:53:10.424Z,6476.00
2018-04-10T06:54:10.408Z,6564.00
2018-04-10T06:55:10.394Z,6684.00
2018-04-10T06:56:10.383Z,6792.00
2018-04-10T06:57:10.374Z,6884.00
2018-04-10T06:58:10.357Z,7012.00
2018-04-10T06:59:10.341Z,7120.00
2018-04-10T07:00:10.331Z,7252.00
2018-04-10T07:01:10.316Z,7368.00
2018-04-10T07:02:10.318Z,7508.00
2018-04-10T07:03:10.295Z,7616.00
2018-04-10T07:04:10.280Z,7744.00
2018-04-10T07:05:10.265Z,7884.00
2018-04-10T07:06:10.259Z,8032.00
2018-04-10T07:07:10.241Z,8216.00
2018-04-10T07:08:10.231Z,8392.00
2018-04-10T07:09:10.215Z,8612.00
2018-04-10T07:10:10.208Z,8820.00
2018-04-10T07:11:10.190Z,9100.00
2018-04-10T07:12:10.178Z,9428.00
2018-04-10T07:13:10.165Z,9812.00
2018-04-10T07:14:10.160Z,10172.00
2018-04-10T07:15:10.142Z,10548.00
2018-04-10T07:16:10.128Z,10916.00
2018-04-10T07:17:10.118Z,11408.00
2018-04-10T07:18:10.108Z,18304.00
2018-04-10T07:19:10.093Z,29184.00
2018-04-10T07:20:10.081Z,36352.00
2018-04-10T07:21:10.077Z,36160.00
2018-04-10T07:22:10.058Z,37888.00
2018-04-10T07:23:10.052Z,39360.00
2018-04-10T07:24:10.034Z,33600.00
2018-04-10T07:25:10.022Z,29792.00
2018-04-10T07:26:10.014Z,37152.00
2018-04-10T07:27:10.004Z,40704.00
2018-04-10T07:28:09.991Z,40288.00
2018-04-10T07:29:09.982Z,38464.00
2018-04-10T07:30:09.973Z,39232.00
2018-04-10T07:31:09.965Z,40992.00
2018-04-10T07:32:09.956Z,41664.00
2018-04-10T07:33:09.944Z,42528.00
2018-04-10T07:34:09.936Z,43456.00
2018-04-10T07:35:09.929Z,43648.00
2018-04-10T07:36:09.924Z,45056.00
2018-04-10T07:37:09.911Z,46976.00
2018-04-10T07:38:09.903Z,48288.00
2018-04-10T07:39:09.898Z,48128.00
2018-04-10T07:40:09.888Z,46880.00
2018-04-10T07:41:09.879Z,48576.00
2018-04-10T07:42:09.877Z,51200.00
2018-04-10T07:43:09.867Z,52224.00
2018-04-10T07:44:09.866Z,51040.00
2018-04-10T07:45:09.855Z,44160.00
2018-04-10T07:46:09.853Z,40544.00
2018-04-10T07:47:09.844Z,45568.00
2018-04-10T07:48:09.841Z,51840.00
2018-04-10T07:49:09.837Z,53120.00
2018-04-10T07:50:09.831Z,52896.00
2018-04-10T07:51:09.828Z,50656.00
2018-04-10T07:52:09.827Z,51424.00
2018-04-10T07:53:09.815Z,54048.00
2018-04-10T07:54:09.809Z,55168.00
2018-04-10T07:55:09.814Z,55552.00
2018-04-10T07:56:09.808Z,55840.00
2018-04-10T07:57:09.804Z,57344.00
2018-04-10T07:58:09.796Z,58080.00
2018-04-10T07:59:09.793Z,56736.00
2018-04-10T08:00:09.790Z,55168.00
2018-04-10T08:01:09.787Z,57184.00
2018-04-10T08:02:09.785Z,58880.00
2018-04-10T08:03:09.786Z,60192.00
2018-04-10T08:04:09.782Z,58816.00
2018-04-10T08:05:09.778Z,57472.00
2018-04-10T08:06:09.777Z,57216.00
2018-04-10T08:07:09.778Z,58592.00
2018-04-10T08:08:09.772Z,60448.00
2018-04-10T08:09:09.786Z,59712.00
2018-04-10T08:10:09.769Z,56160.00
2018-04-10T08:11:09.768Z,56256.00
2018-04-10T08:12:09.766Z,58784.00
2018-04-10T08:13:09.764Z,60896.00
2018-04-10T08:14:09.763Z,60992.00
2018-04-10T08:15:09.764Z,59232.00
2018-04-10T08:16:09.762Z,59360.00
2018-04-10T08:17:09.762Z,61024.00
2018-04-10T08:18:09.762Z,62432.00
2018-04-10T08:19:09.761Z,61376.00
2018-04-10T08:20:09.759Z,61952.00
2018-04-10T08:21:09.761Z,63456.00
2018-04-10T08:22:09.760Z,65472.00
2018-04-10T08:23:09.756Z,64448.00
2018-04-10T08:24:09.764Z,64000.00
2018-04-10T08:25:09.756Z,62400.00
2018-04-10T08:26:09.758Z,63296.00
2018-04-10T08:27:09.757Z,65536.00
2018-04-10T08:28:09.757Z,66496.00
2018-04-10T08:29:09.755Z,66688.00
2018-04-10T08:30:09.761Z,64768.00
2018-04-10T08:31:09.757Z,62944.00
2018-04-10T08:32:09.756Z,64448.00
2018-04-10T08:33:09.762Z,65664.00
2018-04-10T08:34:09.762Z,65216.00
2018-04-10T08:35:09.761Z,64576.00
2018-04-10T08:36:09.764Z,64448.00
2018-04-10T08:37:09.762Z,64896.00
2018-04-10T08:38:09.765Z,67136.00
2018-04-10T08:39:09.767Z,67904.00
2018-04-10T08:40:09.763Z,68672.00
2018-04-10T08:41:09.764Z,70208.00
2018-04-10T08:42:09.767Z,68928.00
2018-04-10T08:43:09.765Z,68896.00
2018-04-10T08:44:09.770Z,69632.00
2018-04-10T08:45:09.771Z,70240.00
2018-04-10T08:46:09.776Z,71904.00
2018-04-10T08:47:09.773Z,71872.00
2018-04-10T08:48:09.774Z,69408.00
2018-04-10T08:49:09.776Z,68064.00
2018-04-10T08:50:09.779Z,69024.00
2018-04-10T08:51:09.777Z,70720.00
2018-04-10T08:52:09.781Z,73216.00
2018-04-10T08:53:09.783Z,73952.00
2018-04-10T08:54:09.785Z,73792.00
2018-04-10T08:55:09.790Z,72576.00
2018-04-10T08:56:09.790Z,72640.00
2018-04-10T08:57:09.792Z,72928.00
2018-04-10T08:58:09.799Z,71840.00
2018-04-10T08:59:09.795Z,71488.00
2018-04-10T09:00:09.801Z,71520.00
2018-04-10T09:01:09.798Z,71936.00
2018-04-10T09:02:09.818Z,73760.00
2018-04-10T09:03:09.804Z,74400.00
2018-04-10T09:04:09.812Z,75104.00
2018-04-10T09:05:09.810Z,75552.00
2018-04-10T09:06:09.818Z,75360.00
2018-04-10T09:07:09.816Z,74368.00
2018-04-10T09:08:09.823Z,73216.00
2018-04-10T09:09:09.825Z,72992.00
2018-04-10T09:10:09.832Z,69984.00
2018-04-10T09:11:09.828Z,70592.00
2018-04-10T09:12:09.830Z,69152.00
2018-04-10T09:13:09.834Z,72224.00
2018-04-10T09:14:09.836Z,74496.00
2018-04-10T09:15:09.839Z,74304.00
2018-04-10T09:16:09.843Z,71264.00
2018-04-10T09:17:09.848Z,69440.00
2018-04-10T09:18:09.848Z,71008.00
2018-04-10T09:19:09.853Z,74848.00
2018-04-10T09:20:09.856Z,78336.00
2018-04-10T09:21:09.863Z,78976.00
2018-04-10T09:22:09.864Z,77440.00
2018-04-10T09:23:09.865Z,74624.00
2018-04-10T09:24:09.872Z,75040.00
2018-04-10T09:25:09.877Z,76096.00
2018-04-10T09:26:09.877Z,77600.00
2018-04-10T09:27:09.877Z,78560.00
2018-04-10T09:28:09.884Z,75328.00
2018-04-10T09:29:09.919Z,76192.00
2018-04-10T09:30:09.893Z,76896.00
2018-04-10T09:31:09.896Z,78816.00
2018-04-10T09:32:09.904Z,81120.00
2018-04-10T09:33:09.901Z,80672.00
2018-04-10T09:34:09.906Z,78560.00
2018-04-10T09:35:09.909Z,75840.00
2018-04-10T09:36:09.913Z,75040.00
2018-04-10T09:37:09.918Z,77696.00
2018-04-10T09:38:09.922Z,77984.00
2018-04-10T09:39:09.926Z,80192.00
2018-04-10T09:40:09.929Z,82176.00
2018-04-10T09:41:09.935Z,82368.00
2018-04-10T09:42:09.941Z,81824.00
2018-04-10T09:43:09.952Z,79744.00
2018-04-10T09:44:09.949Z,75968.00
2018-04-10T09:45:09.953Z,73184.00
2018-04-10T09:46:09.963Z,73088.00
2018-04-10T09:47:09.964Z,74176.00
2018-04-10T09:48:09.970Z,78336.00
2018-04-10T09:49:09.974Z,82304.00
2018-04-10T09:50:10.025Z,83424.00
2018-04-10T09:51:09.979Z,82784.00
2018-04-10T09:52:09.985Z,78560.00
2018-04-10T09:53:09.991Z,77536.00
2018-04-10T09:54:09.995Z,79200.00
2018-04-10T09:55:10.005Z,84672.00
2018-04-10T09:56:10.006Z,89088.00
2018-04-10T09:57:10.010Z,91168.00
2018-04-10T09:58:10.015Z,88320.00
2018-04-10T09:59:10.022Z,83936.00
2018-04-10T10:00:10.025Z,86048.00
2018-04-10T10:01:10.030Z,84768.00
2018-04-10T10:02:10.036Z,87168.00
2018-04-10T10:03:10.040Z,86080.00
2018-04-10T10:04:10.057Z,86304.00
2018-04-10T10:05:10.053Z,82688.00
2018-04-10T10:06:10.058Z,84096.00
2018-04-10T10:07:10.064Z,84960.00
2018-04-10T10:08:10.067Z,86976.00
2018-04-10T10:09:10.077Z,90304.00
2018-04-10T10:10:10.081Z,90880.00
2018-04-10T10:11:10.088Z,91168.00
2018-04-10T10:12:10.099Z,90816.00
2018-04-10T10:13:10.096Z,88640.00
2018-04-10T10:14:10.101Z,87040.00
2018-04-10T10:15:10.108Z,85408.00
2018-04-10T10:16:10.118Z,84288.00
2018-04-10T10:17:10.119Z,86144.00
2018-04-10T10:18:10.126Z,90304.00
2018-04-10T10:19:10.130Z,93088.00
2018-04-10T10:20:10.137Z,92064.00
2018-04-10T10:21:10.143Z,88704.00
2018-04-10T10:22:10.152Z,87552.00
2018-04-10T10:23:10.153Z,86272.00
2018-04-10T10:24:10.164Z,89696.00
2018-04-10T10:25:10.169Z,91488.00
2018-04-10T10:26:10.173Z,89536.00
2018-04-10T10:27:10.178Z,88736.00
2018-04-10T10:28:10.183Z,88160.00
2018-04-10T10:29:10.190Z,88288.00
2018-04-10T10:30:10.197Z,87424.00
2018-04-10T10:31:10.205Z,86464.00
2018-04-10T10:32:10.208Z,86816.00
2018-04-10T10:33:10.219Z,86176.00
2018-04-10T10:34:10.221Z,85632.00
2018-04-10T10:35:10.223Z,85856.00
2018-04-10T10:36:10.234Z,86656.00
2018-04-10T10:37:10.239Z,86208.00
2018-04-10T10:38:10.245Z,90112.00
2018-04-10T10:39:10.297Z,93280.00
2018-04-10T10:40:10.256Z,93248.00
2018-04-10T10:41:10.263Z,92448.00
2018-04-10T10:42:10.271Z,90368.00
2018-04-10T10:43:10.275Z,88736.00
2018-04-10T10:44:10.287Z,88896.00
2018-04-10T10:45:10.289Z,90560.00
2018-04-10T10:46:10.295Z,92128.00
2018-04-10T10:47:10.300Z,91104.00
2018-04-10T10:48:10.308Z,89984.00
2018-04-10T10:49:10.314Z,88352.00
2018-04-10T10:50:10.320Z,89280.00
2018-04-10T10:51:10.325Z,89728.00
2018-04-10T10:52:10.334Z,90176.00
2018-04-10T10:53:10.340Z,88768.00
2018-04-10T10:54:10.347Z,86240.00
2018-04-10T10:55:10.358Z,87968.00
2018-04-10T10:56:10.362Z,86528.00
2018-04-10T10:57:10.367Z,85280.00
2018-04-10T10:58:10.373Z,88352.00
2018-04-10T10:59:10.379Z,90848.00
2018-04-10T11:00:10.386Z,95360.00
2018-04-10T11:01:10.397Z,96928.00
2018-04-10T11:02:10.401Z,91232.00
2018-04-10T11:03:10.405Z,85568.00
2018-04-10T11:04:10.412Z,84832.00
2018-04-10T11:05:10.420Z,84480.00
2018-04-10T11:06:10.425Z,87136.00
2018-04-10T11:07:10.429Z,87680.00
2018-04-10T11:08:10.437Z,87200.00
2018-04-10T11:09:10.446Z,88384.00
2018-04-10T11:10:10.451Z,88672.00
2018-04-10T11:11:10.463Z,88896.00
2018-04-10T11:12:10.470Z,87104.00
2018-04-10T11:13:10.467Z,85600.00
2018-04-10T11:14:10.475Z,84512.00
2018-04-10T11:15:10.485Z,83296.00
2018-04-10T11:16:10.488Z,84800.00
2018-04-10T11:17:10.494Z,83648.00
2018-04-10T11:18:10.501Z,84352.00
2018-04-10T11:19:10.507Z,84320.00
2018-04-10T11:20:10.520Z,87104.00
2018-04-10T11:21:10.520Z,89312.00
2018-04-10T11:22:10.524Z,91104.00
2018-04-10T11:23:10.532Z,91296.00
2018-04-10T11:24:10.536Z,89248.00
2018-04-10T11:25:10.542Z,84768.00
2018-04-10T11:26:10.549Z,80032.00
2018-04-10T11:27:10.589Z,82528.00
2018-04-10T11:28:10.562Z,84960.00
2018-04-10T11:29:10.572Z,85472.00
2018-04-10T11:30:10.577Z,86112.00
2018-04-10T11:31:10.584Z,87936.00
2018-04-10T11:32:10.591Z,90496.00
2018-04-10T11:33:10.594Z,90048.00
2018-04-10T11:34:10.599Z,88352.00
2018-04-10T11:35:10.605Z,85760.00
2018-04-10T11:36:10.612Z,84288.00
2018-04-10T11:37:10.616Z,85664.00
2018-04-10T11:38:10.623Z,87200.00
2018-04-10T11:39:10.678Z,87776.00
2018-04-10T11:40:10.635Z,86272.00
2018-04-10T11:41:10.641Z,84448.00
2018-04-10T11:42:10.648Z,81312.00
2018-04-10T11:43:10.658Z,79968.00
2018-04-10T11:44:10.659Z,80576.00
2018-04-10T11:45:10.664Z,84160.00
2018-04-10T11:46:10.671Z,87840.00
2018-04-10T11:47:10.673Z,90304.00
2018-04-10T11:48:10.681Z,88640.00
2018-04-10T11:49:10.684Z,86592.00
2018-04-10T11:50:10.689Z,84480.00
2018-04-10T11:51:10.698Z,84448.00
2018-04-10T11:52:10.699Z,76832.00
2018-04-10T11:53:10.705Z,46592.00
2018-04-10T11:54:10.712Z,27968.00
2018-04-10T11:55:10.725Z,26848.00
2018-04-10T11:56:10.722Z,26304.00
2018-04-10T11:57:10.732Z,26016.00
2018-04-10T11:58:10.732Z,25888.00
2018-04-10T11:59:10.737Z,25792.00
2018-04-10T12:00:10.762Z,25600.00
2018-04-10T12:01:10.747Z,25440.00
2018-04-10T12:02:10.753Z,25184.00
2018-04-10T12:03:10.759Z,24992.00
2018-04-10T12:04:10.762Z,24896.00
2018-04-10T12:05:10.775Z,24800.00
2018-04-10T12:06:10.774Z,24736.00
2018-04-10T12:07:10.776Z,24512.00
2018-04-10T12:08:10.784Z,24544.00
2018-04-10T12:09:10.785Z,24384.00
2018-04-10T12:10:10.798Z,24384.00
2018-04-10T12:11:10.795Z,24192.00
2018-04-10T12:12:10.802Z,24192.00
2018-04-10T12:13:10.807Z,24128.00
2018-04-10T12:14:10.810Z,23936.00
2018-04-10T12:15:10.816Z,23840.00
2018-04-10T12:16:10.821Z,23776.00
2018-04-10T12:17:10.833Z,23648.00
2018-04-10T12:18:10.830Z,23648.00
2018-04-10T12:19:10.844Z,23648.00
2018-04-10T12:20:10.841Z,23552.00
2018-04-10T12:21:10.856Z,23392.00
2018-04-10T12:22:10.846Z,23232.00
2018-04-10T12:23:10.851Z,23264.00
2018-04-10T12:24:10.858Z,23296.00